Time;durP1;ratioP1;P1;durP2;ratioP2;P2;SDS_P1;SDS_P2;PMS_P1;PMS_P2;Temp;Humidity;BMP_temperature;BMP_pressure;BME280_temperature;BME280_humidity;BME280_pressure;Samples;Min_cycle;Max_cycle;Signal;HPM_P1;HPM_P2
2024/01/09 00:01:53;;;;;;;5.43;2.80;;;;;;;;;;4994874;28;20400;-62
2024/01/09 00:04:18;;;;;;;5.83;3.10;;;;;;;;;;5020208;28;20906;-63
2024/01/09 00:06:43;;;;;;;6.17;2.90;;;;;;;;;;5030695;28;20399;-62
2024/01/09 00:09:09;;;;;;;4.80;2.90;;;;;;;;;;5030800;28;20448;-63
2024/01/09 00:11:34;;;;;;;5.07;2.77;;;;;;;;;;5031439;28;20895;-62
2024/01/09 00:13:59;;;;;;;5.23;2.83;;;;;;;;;;5030656;28;20435;-62
2024/01/09 00:16:25;;;;;;;5.50;2.63;;;;;;;;;;5031373;28;20403;-63
2024/01/09 00:18:53;;;;;;;5.13;2.70;;;;;;;;;;5031607;28;20394;-62
2024/01/09 00:21:19;;;;;;;5.45;2.80;;;;;;;;;;5030088;28;20476;-62
2024/01/09 00:23:45;;;;;;;4.47;2.60;;;;;;;;;;5031264;28;20933;-62
2024/01/09 00:26:10;;;;;;;5.27;2.87;;;;;;;;;;5031309;28;20428;-63
2024/01/09 00:28:35;;;;;;;4.53;2.60;;;;;;;;;;5030444;28;20915;-62
2024/01/09 00:31:01;;;;;;;5.97;2.80;;;;;;;;;;5031170;28;20403;-64
2024/01/09 00:33:26;;;;;;;4.90;2.60;;;;;;;;;;5031515;28;20811;-62
2024/01/09 00:35:52;;;;;;;4.80;2.50;;;;;;;;;;5030673;28;20817;-63
2024/01/09 00:38:17;;;;;;;5.27;2.57;;;;;;;;;;5030834;28;20406;-63
2024/01/09 00:40:42;;;;;;;5.90;2.63;;;;;;;;;;5031372;28;20407;-63
2024/01/09 00:43:07;;;;;;;5.40;2.70;;;;;;;;;;5029704;28;20879;-63
2024/01/09 00:45:33;;;;;;;5.53;2.70;;;;;;;;;;5030029;28;20893;-63
2024/01/09 00:47:58;;;;;;;5.30;2.70;;;;;;;;;;5031138;28;20426;-62
2024/01/09 00:50:23;;;;;;;5.60;2.60;;;;;;;;;;5030180;28;20462;-62
2024/01/09 00:52:48;;;;;;;5.90;2.90;;;;;;;;;;5031188;28;20806;-62
2024/01/09 00:55:15;;;;;;;5.10;2.70;;;;;;;;;;5030900;28;20434;-62
2024/01/09 00:57:40;;;;;;;5.35;2.67;;;;;;;;;;5030121;28;20399;-62
2024/01/09 01:00:06;;;;;;;4.27;2.50;;;;;;;;;;5030430;28;20807;-63
2024/01/09 01:02:31;;;;;;;5.07;2.78;;;;;;;;;;5030865;28;20399;-62
2024/01/09 01:04:57;;;;;;;5.03;2.80;;;;;;;;;;5023642;28;20958;-62
2024/01/09 01:07:22;;;;;;;4.73;2.60;;;;;;;;;;5017424;28;20407;-63
2024/01/09 01:09:47;;;;;;;4.73;2.53;;;;;;;;;;5031000;28;20433;-62
2024/01/09 01:12:12;;;;;;;5.20;2.53;;;;;;;;;;5029440;28;20426;-62
2024/01/09 01:14:38;;;;;;;5.27;2.60;;;;;;;;;;5030375;28;20426;-62
2024/01/09 01:17:03;;;;;;;5.67;2.87;;;;;;;;;;5045659;28;20395;-63
2024/01/09 01:19:28;;;;;;;5.10;2.50;;;;;;;;;;5029986;28;20399;-63
2024/01/09 01:21:54;;;;;;;5.27;2.50;;;;;;;;;;5031169;28;20536;-62
2024/01/09 01:24:19;;;;;;;5.27;2.53;;;;;;;;;;5029262;28;20779;-63
2024/01/09 01:26:44;;;;;;;6.33;2.70;;;;;;;;;;5030899;28;20909;-63
2024/01/09 01:29:10;;;;;;;5.30;2.60;;;;;;;;;;5029926;28;20491;-63
2024/01/09 01:31:35;;;;;;;5.03;2.80;;;;;;;;;;5030058;28;20401;-63
2024/01/09 01:34:00;;;;;;;5.40;2.77;;;;;;;;;;5033481;28;20415;-63
2024/01/09 01:36:25;;;;;;;4.97;2.80;;;;;;;;;;5034733;28;20425;-62
2024/01/09 01:38:51;;;;;;;4.93;2.60;;;;;;;;;;5033920;28;20391;-62
2024/01/09 01:41:16;;;;;;;5.00;2.70;;;;;;;;;;5034377;28;20403;-63
2024/01/09 01:43:41;;;;;;;5.40;2.50;;;;;;;;;;5034187;28;20411;-62
2024/01/09 01:46:06;;;;;;;5.27;2.90;;;;;;;;;;5033214;28;20441;-62
2024/01/09 01:48:32;;;;;;;5.97;2.90;;;;;;;;;;5034409;28;20762;-62
2024/01/09 01:50:57;;;;;;;6.13;2.90;;;;;;;;;;5034520;28;20413;-63
2024/01/09 01:53:22;;;;;;;5.97;2.70;;;;;;;;;;5033435;28;20391;-62
2024/01/09 01:55:48;;;;;;;5.97;2.80;;;;;;;;;;5034488;28;20444;-62
2024/01/09 01:58:13;;;;;;;4.90;2.83;;;;;;;;;;5033975;28;20456;-63
2024/01/09 02:00:38;;;;;;;5.67;2.70;;;;;;;;;;5031924;28;20765;-62
2024/01/09 02:03:04;;;;;;;4.97;2.80;;;;;;;;;;5049248;28;20457;-63
2024/01/09 02:05:29;;;;;;;5.70;3.10;;;;;;;;;;5034037;28;20770;-62
2024/01/09 02:07:54;;;;;;;4.60;2.70;;;;;;;;;;5033586;28;20407;-62
2024/01/09 02:10:20;;;;;;;6.13;3.03;;;;;;;;;;5033725;28;20509;-63
2024/01/09 02:12:45;;;;;;;4.88;2.70;;;;;;;;;;5034074;28;20411;-62
2024/01/09 02:15:11;;;;;;;5.83;2.83;;;;;;;;;;5032434;28;20399;-63
2024/01/09 02:17:36;;;;;;;4.50;2.67;;;;;;;;;;5033811;28;20399;-62
2024/01/09 02:20:02;;;;;;;6.30;2.90;;;;;;;;;;5033614;28;20399;-62
2024/01/09 02:22:27;;;;;;;5.72;2.90;;;;;;;;;;5033397;28;20406;-62
2024/01/09 02:24:52;;;;;;;5.67;3.00;;;;;;;;;;5033511;28;20438;-62
2024/01/09 02:27:26;;;;;;;6.50;3.00;;;;;;;;;;5033457;28;20395;-62
2024/01/09 02:29:52;;;;;;;5.25;2.90;;;;;;;;;;5033289;28;20944;-62
2024/01/09 02:32:17;;;;;;;5.40;3.03;;;;;;;;;;5032282;28;20391;-62
2024/01/09 02:34:43;;;;;;;6.17;3.10;;;;;;;;;;5032905;28;20458;-62
2024/01/09 02:37:08;;;;;;;5.50;2.97;;;;;;;;;;5033341;28;20425;-63
2024/01/09 02:39:33;;;;;;;6.32;3.10;;;;;;;;;;5033773;28;20396;-62
2024/01/09 02:41:59;;;;;;;6.03;2.90;;;;;;;;;;5032768;28;20818;-62
2024/01/09 02:44:24;;;;;;;5.63;2.93;;;;;;;;;;5032456;28;20399;-62
2024/01/09 02:46:49;;;;;;;5.30;3.00;;;;;;;;;;5033121;28;20403;-62
2024/01/09 02:49:14;;;;;;;6.77;3.30;;;;;;;;;;5032259;28;20483;-62
2024/01/09 02:51:40;;;;;;;6.27;3.00;;;;;;;;;;5032109;28;20457;-63
2024/01/09 02:54:05;;;;;;;6.57;3.40;;;;;;;;;;5033003;28;20427;-62
2024/01/09 02:56:32;;;;;;;7.03;3.13;;;;;;;;;;5032621;28;20407;-62
2024/01/09 02:58:57;;;;;;;5.45;2.95;;;;;;;;;;5033329;28;20964;-62
2024/01/09 03:01:23;;;;;;;5.67;3.40;;;;;;;;;;5032303;28;20388;-62
2024/01/09 03:03:49;;;;;;;6.22;3.30;;;;;;;;;;5032507;28;20814;-62
2024/01/09 03:06:14;;;;;;;5.53;3.13;;;;;;;;;;5032642;28;20798;-62
2024/01/09 03:08:39;;;;;;;5.72;3.08;;;;;;;;;;5033228;28;20496;-62
2024/01/09 03:11:04;;;;;;;6.13;3.20;;;;;;;;;;5031767;28;20396;-62
2024/01/09 03:13:30;;;;;;;6.60;3.23;;;;;;;;;;5033141;28;20411;-62
2024/01/09 03:15:55;;;;;;;5.13;3.17;;;;;;;;;;5032454;28;20438;-62
2024/01/09 03:18:20;;;;;;;5.60;3.13;;;;;;;;;;5031716;28;20415;-63
2024/01/09 03:20:46;;;;;;;5.37;2.80;;;;;;;;;;5032810;28;20399;-62
2024/01/09 03:23:11;;;;;;;5.60;3.17;;;;;;;;;;5032049;28;20429;-63
2024/01/09 03:25:36;;;;;;;6.40;3.10;;;;;;;;;;5032068;28;20403;-62
2024/01/09 03:28:03;;;;;;;7.60;3.30;;;;;;;;;;5032202;28;20496;-63
2024/01/09 03:30:29;;;;;;;5.63;3.20;;;;;;;;;;5032808;28;20390;-62
2024/01/09 03:32:55;;;;;;;6.35;3.30;;;;;;;;;;5031646;28;20399;-63
2024/01/09 03:35:20;;;;;;;5.47;2.73;;;;;;;;;;5032201;28;20391;-62
2024/01/09 03:37:45;;;;;;;6.33;3.00;;;;;;;;;;5032088;28;20397;-62
2024/01/09 03:40:11;;;;;;;5.93;3.30;;;;;;;;;;5031741;28;20963;-63
2024/01/09 03:42:36;;;;;;;5.77;3.10;;;;;;;;;;5032460;28;20426;-62
2024/01/09 03:45:02;;;;;;;5.33;3.13;;;;;;;;;;5031178;28;20827;-63
2024/01/09 03:47:27;;;;;;;5.83;3.10;;;;;;;;;;5031989;28;20391;-62
2024/01/09 03:49:52;;;;;;;6.43;3.30;;;;;;;;;;5032360;28;20414;-62
2024/01/09 03:52:18;;;;;;;5.53;3.13;;;;;;;;;;5031090;28;20890;-62
2024/01/09 03:54:43;;;;;;;5.37;3.00;;;;;;;;;;5032251;28;20403;-62
2024/01/09 03:57:10;;;;;;;5.93;3.10;;;;;;;;;;5030712;28;20446;-62
2024/01/09 03:59:35;;;;;;;6.37;3.17;;;;;;;;;;5031628;28;20399;-62
2024/01/09 04:02:01;;;;;;;5.43;3.23;;;;;;;;;;5031153;28;20759;-64
2024/01/09 04:04:26;;;;;;;6.07;3.27;;;;;;;;;;5032089;28;20744;-62
2024/01/09 04:06:52;;;;;;;6.10;3.00;;;;;;;;;;5031100;28;20396;-62
2024/01/09 04:09:17;;;;;;;6.73;3.60;;;;;;;;;;5031432;28;20403;-62
2024/01/09 04:11:43;;;;;;;6.40;3.40;;;;;;;;;;5032019;28;20466;-62
2024/01/09 04:14:08;;;;;;;6.05;3.50;;;;;;;;;;5030536;28;20403;-62
2024/01/09 04:16:34;;;;;;;6.03;3.27;;;;;;;;;;5031624;28;20434;-62
2024/01/09 04:19:07;;;;;;;7.03;3.60;;;;;;;;;;5052645;27;20387;-62
2024/01/09 04:21:32;;;;;;;7.67;3.60;;;;;;;;;;5046353;28;20392;-62
2024/01/09 04:23:57;;;;;;;6.23;3.40;;;;;;;;;;5048132;28;20401;-62
2024/01/09 04:26:23;;;;;;;6.73;3.70;;;;;;;;;;5047870;28;20390;-62
2024/01/09 04:28:48;;;;;;;7.37;3.80;;;;;;;;;;5047672;28;20390;-62
2024/01/09 04:31:13;;;;;;;7.00;3.30;;;;;;;;;;5047759;28;20390;-62
2024/01/09 04:33:41;;;;;;;5.90;3.40;;;;;;;;;;5047767;28;20390;-62
2024/01/09 04:36:06;;;;;;;7.00;3.40;;;;;;;;;;5046886;28;20390;-62
2024/01/09 04:38:31;;;;;;;6.17;3.17;;;;;;;;;;5047701;28;20413;-62
2024/01/09 04:40:57;;;;;;;6.80;3.70;;;;;;;;;;5048079;28;20465;-62
2024/01/09 04:43:22;;;;;;;6.67;3.30;;;;;;;;;;5046728;28;20410;-62
2024/01/09 04:45:47;;;;;;;6.65;3.75;;;;;;;;;;5045409;28;20924;-62
2024/01/09 04:48:13;;;;;;;5.37;3.40;;;;;;;;;;5017022;28;20412;-62
2024/01/09 04:50:38;;;;;;;6.13;3.67;;;;;;;;;;5018145;28;20404;-62
2024/01/09 04:53:03;;;;;;;7.37;4.10;;;;;;;;;;5017501;28;20461;-63
2024/01/09 04:55:28;;;;;;;7.00;4.17;;;;;;;;;;5027412;28;20394;-62
2024/01/09 04:57:54;;;;;;;7.90;3.90;;;;;;;;;;5037651;28;20414;-62
2024/01/09 05:00:19;;;;;;;7.67;3.87;;;;;;;;;;5034756;28;20415;-63
2024/01/09 05:02:44;;;;;;;7.10;4.20;;;;;;;;;;5010307;28;20411;-62
2024/01/09 05:05:10;;;;;;;7.93;4.50;;;;;;;;;;5028689;28;20398;-62
2024/01/09 05:07:35;;;;;;;6.78;3.92;;;;;;;;;;5031031;28;20405;-62
2024/01/09 05:10:00;;;;;;;6.50;3.73;;;;;;;;;;5035934;28;20398;-64
2024/01/09 05:12:26;;;;;;;6.03;3.53;;;;;;;;;;5024627;28;20392;-62
2024/01/09 05:14:51;;;;;;;8.57;3.73;;;;;;;;;;5017480;28;20403;-62
2024/01/09 05:17:16;;;;;;;6.70;3.83;;;;;;;;;;5021295;28;20430;-62
2024/01/09 05:19:41;;;;;;;9.10;4.90;;;;;;;;;;5036912;28;20410;-62
2024/01/09 05:22:07;;;;;;;7.67;4.57;;;;;;;;;;5055382;28;20880;-63
2024/01/09 05:24:32;;;;;;;6.57;4.33;;;;;;;;;;5049013;28;20393;-62
2024/01/09 05:26:57;;;;;;;9.90;5.53;;;;;;;;;;5048280;28;20396;-62
2024/01/09 05:29:22;;;;;;;8.37;4.73;;;;;;;;;;5041040;28;20393;-62
2024/01/09 05:31:48;;;;;;;8.70;4.10;;;;;;;;;;5031015;28;20422;-62
2024/01/09 05:34:13;;;;;;;7.77;4.83;;;;;;;;;;5042049;28;20421;-62
2024/01/09 05:36:38;;;;;;;6.30;3.83;;;;;;;;;;5043188;28;20393;-62
2024/01/09 05:39:04;;;;;;;7.37;4.30;;;;;;;;;;5041846;28;20752;-62
2024/01/09 05:41:29;;;;;;;7.10;4.17;;;;;;;;;;5042906;28;20417;-62
2024/01/09 05:43:54;;;;;;;7.03;4.27;;;;;;;;;;5041328;28;20464;-62
2024/01/09 05:46:20;;;;;;;8.70;4.60;;;;;;;;;;5037258;28;20490;-62
2024/01/09 05:48:45;;;;;;;7.35;4.35;;;;;;;;;;5035356;28;21159;-62
2024/01/09 05:51:10;;;;;;;7.13;4.60;;;;;;;;;;5034437;28;20405;-62
2024/01/09 05:53:36;;;;;;;8.90;4.83;;;;;;;;;;5038516;28;20402;-62
2024/01/09 05:56:03;;;;;;;7.50;4.60;;;;;;;;;;5024854;28;20414;-63
2024/01/09 05:58:28;;;;;;;7.22;4.55;;;;;;;;;;5022507;28;20415;-62
2024/01/09 06:00:53;;;;;;;7.67;4.50;;;;;;;;;;5023497;28;20644;-62
2024/01/09 06:03:18;;;;;;;7.45;4.45;;;;;;;;;;5022452;28;20455;-62
2024/01/09 06:05:44;;;;;;;7.80;4.50;;;;;;;;;;5022399;28;20399;-62
2024/01/09 06:08:09;;;;;;;8.40;4.50;;;;;;;;;;5020542;28;20410;-62
2024/01/09 06:10:34;;;;;;;8.68;5.30;;;;;;;;;;5015618;28;20399;-62
2024/01/09 06:13:00;;;;;;;8.07;4.90;;;;;;;;;;5014383;28;20457;-62
2024/01/09 06:15:25;;;;;;;8.67;5.00;;;;;;;;;;5016520;28;20402;-62
2024/01/09 06:17:50;;;;;;;8.30;5.00;;;;;;;;;;5022867;28;20765;-62
2024/01/09 06:20:15;;;;;;;8.40;4.60;;;;;;;;;;5021700;28;20407;-62
2024/01/09 06:22:41;;;;;;;8.30;4.80;;;;;;;;;;5025284;28;20482;-62
2024/01/09 06:25:06;;;;;;;7.77;4.27;;;;;;;;;;5022067;28;21002;-63
2024/01/09 06:27:31;;;;;;;9.03;4.70;;;;;;;;;;5021743;28;20429;-62
2024/01/09 06:29:57;;;;;;;7.23;4.40;;;;;;;;;;5022938;28;20751;-62
2024/01/09 06:32:22;;;;;;;8.20;4.70;;;;;;;;;;5020856;28;20471;-62
2024/01/09 06:34:47;;;;;;;7.93;4.70;;;;;;;;;;5016377;28;20392;-62
2024/01/09 06:37:12;;;;;;;8.05;4.57;;;;;;;;;;5013835;28;20418;-62
2024/01/09 06:39:38;;;;;;;8.30;4.57;;;;;;;;;;5025256;28;20389;-62
2024/01/09 06:42:03;;;;;;;8.57;4.70;;;;;;;;;;5024689;28;20513;-62
2024/01/09 06:44:29;;;;;;;8.15;4.45;;;;;;;;;;5022842;28;20484;-62
2024/01/09 06:46:54;;;;;;;7.93;4.80;;;;;;;;;;5026313;28;20435;-62
2024/01/09 06:49:19;;;;;;;7.80;4.63;;;;;;;;;;5045972;28;20395;-62
2024/01/09 06:51:45;;;;;;;7.97;4.63;;;;;;;;;;5051815;28;20394;-63
2024/01/09 06:54:11;;;;;;;7.80;4.60;;;;;;;;;;5048735;28;20417;-63
2024/01/09 06:56:36;;;;;;;7.07;4.33;;;;;;;;;;5049627;28;20402;-61
2024/01/09 06:59:01;;;;;;;8.40;4.87;;;;;;;;;;5060903;28;20398;-61
2024/01/09 07:01:27;;;;;;;13.33;7.00;;;;;;;;;;5055052;28;20722;-60
2024/01/09 07:03:52;;;;;;;9.20;5.10;;;;;;;;;;5050314;28;20801;-61
2024/01/09 07:06:18;;;;;;;7.57;4.50;;;;;;;;;;5050620;28;20410;-61
2024/01/09 07:08:43;;;;;;;6.95;4.50;;;;;;;;;;5051246;28;20408;-61
2024/01/09 07:11:08;;;;;;;8.27;4.77;;;;;;;;;;5049899;28;20526;-62
2024/01/09 07:13:34;;;;;;;9.43;4.90;;;;;;;;;;5051536;28;20481;-60
2024/01/09 07:15:59;;;;;;;9.65;4.60;;;;;;;;;;5050190;28;20406;-62
2024/01/09 07:18:27;;;;;;;7.87;4.60;;;;;;;;;;5050402;28;20918;-62
2024/01/09 07:20:52;;;;;;;9.20;5.18;;;;;;;;;;5051530;28;20493;-63
2024/01/09 07:23:17;;;;;;;7.87;4.60;;;;;;;;;;5049562;28;20504;-63
2024/01/09 07:25:43;;;;;;;7.93;4.70;;;;;;;;;;5051435;28;20744;-63
2024/01/09 07:28:08;;;;;;;8.37;4.80;;;;;;;;;;5050780;28;20429;-63
2024/01/09 07:30:33;;;;;;;7.60;4.50;;;;;;;;;;5050672;28;20463;-63
2024/01/09 07:32:58;;;;;;;9.03;4.70;;;;;;;;;;5051330;28;20400;-63
2024/01/09 07:35:24;;;;;;;9.27;5.13;;;;;;;;;;5050838;28;20393;-63
2024/01/09 07:37:49;;;;;;;7.67;4.60;;;;;;;;;;5050087;28;20484;-63
2024/01/09 07:40:14;;;;;;;8.43;5.03;;;;;;;;;;5050878;28;20404;-63
2024/01/09 07:42:40;;;;;;;9.77;5.07;;;;;;;;;;5050867;28;20445;-63
2024/01/09 07:45:05;;;;;;;9.00;4.90;;;;;;;;;;5050046;28;20397;-63
2024/01/09 07:47:31;;;;;;;8.23;4.50;;;;;;;;;;5050874;28;20440;-63
2024/01/09 07:49:56;;;;;;;7.45;4.57;;;;;;;;;;5050944;28;20394;-63
2024/01/09 07:52:22;;;;;;;8.10;4.63;;;;;;;;;;5049136;28;20374;-63
2024/01/09 07:54:47;;;;;;;8.93;4.70;;;;;;;;;;5051089;28;20394;-62
2024/01/09 07:57:12;;;;;;;7.77;4.87;;;;;;;;;;5050219;28;20406;-63
2024/01/09 07:59:40;;;;;;;8.30;4.70;;;;;;;;;;5032209;28;20626;-63
2024/01/09 08:02:06;;;;;;;8.57;4.72;;;;;;;;;;5050408;28;20737;-63
2024/01/09 08:04:31;;;;;;;8.35;4.88;;;;;;;;;;5050928;28;20439;-63
2024/01/09 08:06:57;;;;;;;7.65;4.68;;;;;;;;;;5050247;28;20397;-63
2024/01/09 08:09:22;;;;;;;8.70;4.60;;;;;;;;;;5050264;28;20410;-63
2024/01/09 08:11:47;;;;;;;8.20;4.50;;;;;;;;;;5050789;28;20481;-63
2024/01/09 08:14:13;;;;;;;8.05;4.35;;;;;;;;;;5049410;28;20432;-63
2024/01/09 08:16:38;;;;;;;7.80;4.60;;;;;;;;;;5050889;28;20409;-63
2024/01/09 08:19:04;;;;;;;8.50;4.73;;;;;;;;;;5032186;28;20432;-63
2024/01/09 08:21:30;;;;;;;8.57;5.05;;;;;;;;;;5050233;28;20396;-63
2024/01/09 08:23:55;;;;;;;8.50;4.25;;;;;;;;;;5050182;28;20397;-63
2024/01/09 08:26:22;;;;;;;8.63;4.93;;;;;;;;;;5049320;28;20396;-63
2024/01/09 08:28:47;;;;;;;8.32;4.80;;;;;;;;;;5050608;28;20503;-62
2024/01/09 08:31:13;;;;;;;8.20;4.60;;;;;;;;;;5050386;28;20480;-63
2024/01/09 08:33:38;;;;;;;7.93;4.57;;;;;;;;;;5049816;28;20432;-63
2024/01/09 08:36:04;;;;;;;8.40;4.77;;;;;;;;;;5049970;28;20404;-63
2024/01/09 08:38:29;;;;;;;7.73;4.40;;;;;;;;;;5050204;28;20400;-63
2024/01/09 08:40:56;;;;;;;7.43;4.27;;;;;;;;;;5049800;28;20398;-63
2024/01/09 08:43:21;;;;;;;7.97;4.50;;;;;;;;;;5049833;28;20388;-63
2024/01/09 08:45:48;;;;;;;8.27;4.50;;;;;;;;;;5032922;28;20405;-63
2024/01/09 08:48:13;;;;;;;7.85;4.40;;;;;;;;;;5049059;28;20405;-63
2024/01/09 08:50:39;;;;;;;8.80;5.03;;;;;;;;;;5050336;28;20547;-63
2024/01/09 08:53:04;;;;;;;8.63;4.43;;;;;;;;;;5049793;28;20394;-63
2024/01/09 08:55:29;;;;;;;7.37;4.23;;;;;;;;;;5049286;28;20405;-63
2024/01/09 08:57:54;;;;;;;7.50;4.35;;;;;;;;;;5050130;28;20483;-63
2024/01/09 09:00:20;;;;;;;7.47;4.20;;;;;;;;;;5049820;28;20480;-62
2024/01/09 09:02:45;;;;;;;7.67;4.53;;;;;;;;;;5049466;28;20393;-62
2024/01/09 09:05:11;;;;;;;8.13;4.50;;;;;;;;;;5052059;28;20405;-63
2024/01/09 09:07:36;;;;;;;6.90;4.30;;;;;;;;;;5054097;28;20389;-63
2024/01/09 09:10:01;;;;;;;7.35;4.18;;;;;;;;;;5052568;28;20441;-63
2024/01/09 09:12:28;;;;;;;7.57;4.20;;;;;;;;;;5053990;28;20442;-63
2024/01/09 09:14:53;;;;;;;6.72;4.03;;;;;;;;;;5053790;28;20405;-63
2024/01/09 09:17:19;;;;;;;8.03;4.37;;;;;;;;;;5052443;28;20421;-63
2024/01/09 09:19:44;;;;;;;8.32;4.28;;;;;;;;;;5035868;28;20397;-63
2024/01/09 09:22:11;;;;;;;9.53;4.40;;;;;;;;;;5053428;28;20761;-63
2024/01/09 09:24:36;;;;;;;8.80;4.33;;;;;;;;;;5052860;28;20428;-63
2024/01/09 09:27:01;;;;;;;7.43;3.93;;;;;;;;;;5053251;28;20896;-63
2024/01/09 09:29:27;;;;;;;10.20;4.03;;;;;;;;;;5052986;28;20472;-63
2024/01/09 09:31:52;;;;;;;8.40;4.20;;;;;;;;;;5053758;28;20401;-63
2024/01/09 09:34:17;;;;;;;6.40;3.90;;;;;;;;;;5053150;28;20408;-63
2024/01/09 09:36:43;;;;;;;6.60;3.73;;;;;;;;;;5052806;28;20393;-63
2024/01/09 09:39:10;;;;;;;7.18;3.70;;;;;;;;;;5052587;28;20477;-63
2024/01/09 09:41:35;;;;;;;6.78;4.00;;;;;;;;;;5053385;28;20397;-63
2024/01/09 09:44:03;;;;;;;7.47;4.30;;;;;;;;;;5051861;28;20401;-64
2024/01/09 09:46:29;;;;;;;7.57;4.05;;;;;;;;;;5035776;28;20389;-63
2024/01/09 09:48:55;;;;;;;6.90;3.90;;;;;;;;;;5053288;28;20393;-63
2024/01/09 09:51:22;;;;;;;7.75;4.10;;;;;;;;;;5052065;28;20406;-63
2024/01/09 09:53:47;;;;;;;8.23;3.83;;;;;;;;;;5053481;28;20888;-63
2024/01/09 09:56:13;;;;;;;7.37;3.90;;;;;;;;;;5052375;28;20476;-63
2024/01/09 09:58:38;;;;;;;6.72;3.40;;;;;;;;;;5034235;28;20405;-63
2024/01/09 10:01:03;;;;;;;6.33;3.70;;;;;;;;;;5052493;28;20421;-63
2024/01/09 10:03:31;;;;;;;7.75;3.90;;;;;;;;;;5053015;28;20465;-64
2024/01/09 10:05:56;;;;;;;6.18;3.67;;;;;;;;;;5052140;28;20869;-63
2024/01/09 10:08:22;;;;;;;6.60;3.63;;;;;;;;;;5052738;28;20392;-64
2024/01/09 10:10:47;;;;;;;6.15;3.60;;;;;;;;;;5052696;28;20401;-63
2024/01/09 10:13:12;;;;;;;6.73;3.50;;;;;;;;;;5051401;28;20489;-64
2024/01/09 10:15:54;;;;;;;6.60;3.65;;;;;;;;;;5052655;28;20421;-64
2024/01/09 10:18:20;;;;;;;7.07;3.35;;;;;;;;;;5051863;28;20410;-64
2024/01/09 10:20:45;;;;;;;6.82;3.42;;;;;;;;;;5052004;28;20404;-64
2024/01/09 10:23:11;;;;;;;7.03;3.67;;;;;;;;;;5052272;28;20409;-64
2024/01/09 10:25:36;;;;;;;5.87;3.17;;;;;;;;;;5052446;28;20393;-64
2024/01/09 10:28:03;;;;;;;6.93;3.70;;;;;;;;;;5051440;28;20499;-65
2024/01/09 10:30:29;;;;;;;7.57;3.80;;;;;;;;;;5034775;28;20385;-64
2024/01/09 10:32:54;;;;;;;6.70;3.33;;;;;;;;;;5033648;28;20401;-63
2024/01/09 10:35:19;;;;;;;5.87;3.40;;;;;;;;;;5052010;28;20443;-63
2024/01/09 10:37:45;;;;;;;6.43;3.35;;;;;;;;;;5052123;28;20412;-63
2024/01/09 10:40:10;;;;;;;6.77;3.40;;;;;;;;;;5051149;28;20488;-64
2024/01/09 10:42:43;;;;;;;7.80;3.58;;;;;;;;;;5052097;28;20401;-63
2024/01/09 10:45:09;;;;;;;6.35;3.15;;;;;;;;;;5033798;28;20813;-63
2024/01/09 10:47:34;;;;;;;6.63;3.70;;;;;;;;;;5051358;28;20397;-64
2024/01/09 10:50:00;;;;;;;5.57;3.30;;;;;;;;;;5029462;28;20398;-63
2024/01/09 10:52:26;;;;;;;5.30;3.20;;;;;;;;;;5051847;28;20407;-63
2024/01/09 10:54:51;;;;;;;7.13;3.72;;;;;;;;;;5051231;28;20877;-63
2024/01/09 10:57:17;;;;;;;6.87;3.27;;;;;;;;;;5051345;28;20408;-64
2024/01/09 10:59:43;;;;;;;6.27;3.30;;;;;;;;;;5051603;28;20909;-64
2024/01/09 11:02:10;;;;;;;5.40;3.10;;;;;;;;;;5050568;28;20547;-64
2024/01/09 11:04:36;;;;;;;5.90;3.50;;;;;;;;;;5033777;28;20390;-64
2024/01/09 11:07:01;;;;;;;6.10;3.07;;;;;;;;;;5051436;28;20405;-64
2024/01/09 11:09:26;;;;;;;6.37;3.10;;;;;;;;;;5033366;28;20390;-64
2024/01/09 11:11:53;;;;;;;6.15;3.33;;;;;;;;;;5033890;28;20487;-64
2024/01/09 11:14:18;;;;;;;6.70;3.53;;;;;;;;;;5050998;28;20742;-64
2024/01/09 11:16:43;;;;;;;6.07;3.10;;;;;;;;;;5050957;28;20393;-64
2024/01/09 11:19:09;;;;;;;6.27;3.00;;;;;;;;;;5016108;28;20474;-64
2024/01/09 11:21:34;;;;;;;6.90;3.17;;;;;;;;;;5012162;28;20400;-64
2024/01/09 11:24:03;;;;;;;5.95;3.30;;;;;;;;;;5010160;28;20503;-64
2024/01/09 11:26:30;;;;;;;5.70;2.95;;;;;;;;;;5011262;28;20397;-64
2024/01/09 11:28:57;;;;;;;5.30;2.92;;;;;;;;;;5011644;28;20385;-64
2024/01/09 11:31:23;;;;;;;6.47;3.10;;;;;;;;;;5010712;28;20929;-63
2024/01/09 11:33:49;;;;;;;5.65;2.90;;;;;;;;;;5011135;28;20397;-63
2024/01/09 11:36:20;;;;;;;5.95;3.20;;;;;;;;;;5010126;28;20804;-64
2024/01/09 11:38:45;;;;;;;7.20;3.17;;;;;;;;;;5036988;28;20954;-64
2024/01/09 11:41:10;;;;;;;6.50;3.20;;;;;;;;;;5011372;28;20405;-64
2024/01/09 11:43:54;;;;;;;5.27;2.97;;;;;;;;;;5042212;28;20483;-64
2024/01/09 11:46:20;;;;;;;6.00;2.95;;;;;;;;;;4991376;28;20439;-64
2024/01/09 11:48:45;;;;;;;5.63;3.43;;;;;;;;;;5023102;28;20500;-64
2024/01/09 11:51:11;;;;;;;5.30;3.10;;;;;;;;;;4990594;28;20871;-64
2024/01/09 11:53:36;;;;;;;5.05;2.70;;;;;;;;;;4991969;28;20973;-64
2024/01/09 11:56:01;;;;;;;6.28;3.03;;;;;;;;;;5022891;28;20798;-65
2024/01/09 11:58:27;;;;;;;6.73;3.37;;;;;;;;;;5030409;28;20399;-64
2024/01/09 12:00:52;;;;;;;5.70;2.90;;;;;;;;;;5014085;28;20407;-64
2024/01/09 12:03:17;;;;;;;5.85;3.25;;;;;;;;;;5030256;28;20431;-64
2024/01/09 12:05:43;;;;;;;5.50;2.80;;;;;;;;;;5030320;28;20968;-64
2024/01/09 12:08:08;;;;;;;5.43;2.80;;;;;;;;;;5030590;28;20763;-64
2024/01/09 12:10:33;;;;;;;5.27;2.80;;;;;;;;;;5031153;28;20429;-64
2024/01/09 12:13:01;;;;;;;6.20;2.80;;;;;;;;;;5030101;28;20403;-64
2024/01/09 12:15:26;;;;;;;5.82;2.70;;;;;;;;;;5030536;28;20391;-64
2024/01/09 12:17:57;;;;;;;5.40;2.90;;;;;;;;;;5030781;28;20409;-64
2024/01/09 12:20:22;;;;;;;4.85;2.60;;;;;;;;;;5029771;28;20697;-64
2024/01/09 12:22:48;;;;;;;5.17;2.70;;;;;;;;;;5030999;28;20939;-64
2024/01/09 12:25:13;;;;;;;4.97;2.70;;;;;;;;;;5030322;28;20426;-64
2024/01/09 12:27:38;;;;;;;5.50;2.87;;;;;;;;;;5028621;28;20387;-64
2024/01/09 12:30:04;;;;;;;5.57;2.85;;;;;;;;;;5030409;28;20482;-64
2024/01/09 12:32:30;;;;;;;5.97;2.90;;;;;;;;;;5028581;28;20406;-64
2024/01/09 12:34:55;;;;;;;5.33;2.57;;;;;;;;;;5042488;28;20397;-64
2024/01/09 12:37:21;;;;;;;5.88;2.72;;;;;;;;;;5049962;28;20424;-64
2024/01/09 12:39:55;;;;;;;4.83;2.33;;;;;;;;;;5050759;28;20496;-64
2024/01/09 12:42:20;;;;;;;5.60;2.80;;;;;;;;;;5054378;28;20446;-64
2024/01/09 12:44:46;;;;;;;5.50;2.60;;;;;;;;;;5045119;28;20394;-64
2024/01/09 12:47:12;;;;;;;5.30;2.80;;;;;;;;;;5032798;28;20415;-63
2024/01/09 12:49:43;;;;;;;5.07;2.50;;;;;;;;;;5033715;28;20471;-63
2024/01/09 12:52:09;;;;;;;5.53;2.50;;;;;;;;;;5034408;28;20443;-63
2024/01/09 12:54:34;;;;;;;5.18;2.40;;;;;;;;;;5033743;28;20434;-63
2024/01/09 12:57:00;;;;;;;4.57;2.63;;;;;;;;;;5034521;28;20503;-63
2024/01/09 12:59:26;;;;;;;4.93;2.40;;;;;;;;;;5033890;28;20391;-63
2024/01/09 13:01:52;;;;;;;6.45;2.83;;;;;;;;;;5033624;28;20529;-63
2024/01/09 13:04:18;;;;;;;5.20;2.55;;;;;;;;;;5033591;28;20407;-63
2024/01/09 13:06:43;;;;;;;5.00;2.60;;;;;;;;;;5034292;28;20403;-63
2024/01/09 13:09:10;;;;;;;5.47;2.67;;;;;;;;;;5032973;28;20394;-63
2024/01/09 13:11:36;;;;;;;5.50;2.30;;;;;;;;;;5034293;28;20391;-63
2024/01/09 13:14:02;;;;;;;5.77;3.03;;;;;;;;;;5033650;28;20514;-64
2024/01/09 13:16:27;;;;;;;5.18;2.55;;;;;;;;;;5033516;28;20817;-63
2024/01/09 13:18:52;;;;;;;6.07;2.77;;;;;;;;;;5047042;28;20490;-63
2024/01/09 13:21:18;;;;;;;4.77;2.40;;;;;;;;;;5053486;28;20965;-64
2024/01/09 13:23:43;;;;;;;5.47;2.20;;;;;;;;;;5052784;28;20467;-64
2024/01/09 13:26:08;;;;;;;4.80;2.30;;;;;;;;;;5053422;28;20480;-64
2024/01/09 13:28:34;;;;;;;4.10;2.20;;;;;;;;;;5053196;28;20532;-64
2024/01/09 13:30:59;;;;;;;4.90;2.50;;;;;;;;;;5053257;28;20881;-64
2024/01/09 13:33:24;;;;;;;6.47;3.37;;;;;;;;;;5035041;28;20469;-65
2024/01/09 13:35:50;;;;;;;4.20;2.30;;;;;;;;;;5052845;28;20726;-66
2024/01/09 13:38:16;;;;;;;7.43;3.37;;;;;;;;;;5035115;28;20429;-64
2024/01/09 13:40:41;;;;;;;4.82;2.45;;;;;;;;;;5053591;28;20393;-64
2024/01/09 13:43:06;;;;;;;6.82;2.33;;;;;;;;;;5051859;28;20466;-67
2024/01/09 13:45:32;;;;;;;6.10;2.97;;;;;;;;;;5052219;28;20397;-62
2024/01/09 13:47:57;;;;;;;5.33;3.20;;;;;;;;;;5053072;28;20440;-63
2024/01/09 13:50:23;;;;;;;5.10;2.60;;;;;;;;;;5051775;28;20476;-63
2024/01/09 13:52:48;;;;;;;4.97;2.63;;;;;;;;;;5053276;28;20932;-62
2024/01/09 13:55:14;;;;;;;5.47;3.17;;;;;;;;;;5051725;28;20424;-64
2024/01/09 13:57:42;;;;;;;4.87;2.63;;;;;;;;;;5052521;28;20896;-64
2024/01/09 14:00:09;;;;;;;5.32;2.33;;;;;;;;;;5051193;28;20401;-65
2024/01/09 14:02:35;;;;;;;5.27;2.43;;;;;;;;;;5052655;28;20480;-65
2024/01/09 14:05:00;;;;;;;4.63;2.50;;;;;;;;;;5051680;28;20548;-65
2024/01/09 14:07:25;;;;;;;4.22;2.40;;;;;;;;;;5052934;28;20446;-65
2024/01/09 14:09:51;;;;;;;5.33;2.40;;;;;;;;;;5052881;28;20401;-65
2024/01/09 14:12:16;;;;;;;5.57;2.40;;;;;;;;;;5051884;28;20401;-65
2024/01/09 14:14:41;;;;;;;5.90;2.60;;;;;;;;;;5052874;28;20474;-65
2024/01/09 14:17:06;;;;;;;6.15;2.40;;;;;;;;;;5051787;28;20892;-65
2024/01/09 14:19:32;;;;;;;5.00;2.37;;;;;;;;;;5051693;28;20408;-65
2024/01/09 14:21:57;;;;;;;5.27;2.60;;;;;;;;;;5052769;28;20398;-64
2024/01/09 14:24:23;;;;;;;4.78;2.58;;;;;;;;;;5052132;28;20840;-65
2024/01/09 14:26:48;;;;;;;4.63;2.30;;;;;;;;;;5052129;28;20425;-65
2024/01/09 14:29:13;;;;;;;12.13;6.70;;;;;;;;;;5052042;28;20402;-65
2024/01/09 14:31:39;;;;;;;6.90;3.75;;;;;;;;;;5042333;28;20414;-64
2024/01/09 14:34:04;;;;;;;11.03;5.13;;;;;;;;;;5027323;28;20800;-66